createdAt,value
2022-09-07T00:01:17.732Z,13.87
2022-09-07T00:03:47.387Z,13.27
2022-09-07T00:06:16.086Z,13.30
2022-09-07T00:08:44.784Z,13.20
2022-09-07T00:11:15.315Z,13.47
2022-09-07T00:13:45.500Z,13.53
2022-09-07T00:16:16.352Z,13.30
2022-09-07T00:18:46.335Z,13.60
2022-09-07T00:21:18.295Z,14.07
2022-09-07T00:23:48.815Z,13.20
2022-09-07T00:26:19.245Z,13.47
2022-09-07T00:28:47.996Z,14.13
2022-09-07T00:31:19.520Z,13.80
2022-09-07T00:33:49.176Z,13.77
2022-09-07T00:36:19.910Z,13.30
2022-09-07T00:38:49.699Z,13.80
2022-09-07T00:41:19.032Z,14.20
2022-09-07T00:43:49.775Z,14.20
2022-09-07T00:46:19.539Z,14.53
2022-09-07T00:48:54.670Z,14.03
2022-09-07T00:51:28.805Z,13.97
2022-09-07T00:54:02.366Z,15.03
2022-09-07T00:56:35.773Z,14.17
2022-09-07T00:59:05.187Z,14.60
2022-09-07T01:01:35.210Z,14.30
2022-09-07T01:04:04.787Z,13.70
2022-09-07T01:06:36.583Z,14.23
2022-09-07T01:09:10.213Z,14.30
2022-09-07T01:11:39.794Z,13.70
2022-09-07T01:14:10.379Z,14.03
2022-09-07T01:16:50.199Z,13.80
2022-09-07T01:20:05.006Z,13.87
2022-09-07T01:23:08.824Z,14.07
2022-09-07T01:25:45.656Z,13.70
2022-09-07T01:28:21.620Z,13.97
2022-09-07T01:30:56.596Z,14.20
2022-09-07T01:33:38.260Z,14.13
2022-09-07T01:36:18.288Z,14.50
2022-09-07T01:38:48.777Z,13.80
2022-09-07T01:41:22.767Z,14.70
2022-09-07T01:43:58.280Z,14.20
2022-09-07T01:46:30.077Z,15.00
2022-09-07T01:49:05.717Z,14.00
2022-09-07T01:51:37.169Z,14.00
2022-09-07T01:54:11.545Z,13.97
2022-09-07T01:56:44.629Z,14.10
2022-09-07T01:59:21.407Z,13.87
2022-09-07T02:01:55.241Z,14.07
2022-09-07T02:04:29.045Z,13.80
2022-09-07T02:07:03.787Z,14.33
2022-09-07T02:09:37.494Z,13.67
2022-09-07T02:12:12.457Z,13.77
2022-09-07T02:14:49.370Z,13.40
2022-09-07T02:17:23.553Z,14.60
2022-09-07T02:19:54.466Z,14.37
2022-09-07T02:22:27.795Z,14.97
2022-09-07T02:24:59.943Z,16.07
2022-09-07T02:27:34.974Z,14.57
2022-09-07T02:30:04.902Z,14.77
2022-09-07T02:32:33.257Z,14.57
2022-09-07T02:35:02.155Z,14.30
2022-09-07T02:37:31.368Z,14.70
2022-09-07T02:40:00.497Z,14.33
2022-09-07T02:42:32.380Z,14.20
2022-09-07T02:45:01.449Z,14.07
2022-09-07T02:47:45.328Z,14.87
2022-09-07T02:50:30.161Z,14.90
2022-09-07T02:53:09.605Z,15.20
2022-09-07T02:55:47.214Z,15.03
2022-09-07T02:58:25.452Z,14.90
2022-09-07T03:01:00.189Z,14.53
2022-09-07T03:03:51.240Z,14.60
2022-09-07T03:06:26.080Z,14.70
2022-09-07T03:08:57.063Z,15.00
2022-09-07T03:11:25.905Z,14.60
2022-09-07T03:13:54.281Z,15.07
2022-09-07T03:16:22.658Z,14.97
2022-09-07T03:18:52.569Z,15.37
2022-09-07T03:21:20.846Z,15.03
2022-09-07T03:23:51.811Z,15.10
2022-09-07T03:26:25.334Z,15.17
2022-09-07T03:28:53.902Z,15.07
2022-09-07T03:31:22.246Z,14.60
2022-09-07T03:33:51.965Z,13.57
2022-09-07T03:36:20.276Z,14.60
2022-09-07T03:38:48.675Z,14.57
2022-09-07T03:41:17.414Z,15.20
2022-09-07T03:43:45.827Z,15.60
2022-09-07T03:46:18.124Z,16.03
2022-09-07T03:48:47.300Z,16.27
2022-09-07T03:51:18.326Z,15.87
2022-09-07T03:53:47.484Z,15.80
2022-09-07T03:56:19.116Z,16.70
2022-09-07T03:58:48.614Z,16.37
2022-09-07T04:01:18.783Z,17.53
2022-09-07T04:03:48.008Z,16.63
2022-09-07T04:06:19.586Z,15.77
2022-09-07T04:08:48.116Z,16.00
2022-09-07T04:11:19.727Z,15.10
2022-09-07T04:13:48.215Z,16.03
2022-09-07T04:16:20.249Z,15.03
2022-09-07T04:18:50.315Z,16.00
2022-09-07T04:21:20.234Z,14.83
2022-09-07T04:23:49.252Z,14.97
2022-09-07T04:26:19.537Z,15.47
2022-09-07T04:28:48.359Z,15.50
2022-09-07T04:31:18.301Z,15.87
2022-09-07T04:33:48.399Z,15.87
2022-09-07T04:36:17.815Z,14.97
2022-09-07T04:38:47.871Z,14.03
2022-09-07T04:41:18.063Z,13.10
2022-09-07T04:43:48.266Z,13.10
2022-09-07T04:46:21.676Z,12.23
2022-09-07T04:48:50.587Z,12.17
2022-09-07T04:51:20.085Z,11.40
2022-09-07T04:53:51.837Z,11.93
2022-09-07T04:56:21.156Z,11.77
2022-09-07T04:58:49.956Z,11.57
2022-09-07T05:01:21.304Z,11.57
2022-09-07T05:03:50.876Z,11.43
2022-09-07T05:06:20.923Z,11.57
2022-09-07T05:08:52.374Z,11.23
2022-09-07T05:11:26.258Z,12.37
2022-09-07T05:13:57.567Z,10.67
2022-09-07T05:16:26.503Z,10.57
2022-09-07T05:18:56.668Z,11.57
2022-09-07T05:21:27.087Z,11.83
2022-09-07T05:23:58.626Z,12.50
2022-09-07T05:26:29.877Z,12.43
2022-09-07T05:31:51.001Z,12.10
2022-09-07T05:34:35.008Z,12.30
2022-09-07T05:37:03.555Z,12.03
2022-09-07T05:39:33.310Z,12.43
2022-09-07T05:42:01.635Z,12.63
2022-09-07T05:44:47.427Z,13.07
2022-09-07T05:47:16.146Z,12.97
2022-09-07T05:49:44.517Z,12.73
2022-09-07T05:52:12.988Z,12.60
2022-09-07T05:54:42.586Z,11.93
2022-09-07T05:57:13.135Z,12.20
2022-09-07T05:59:41.667Z,12.50
2022-09-07T06:02:14.304Z,12.27
2022-09-07T06:04:43.058Z,12.70
2022-09-07T06:07:27.953Z,11.60
2022-09-07T06:12:49.120Z,11.77
2022-09-07T06:15:18.129Z,10.93
2022-09-07T06:17:46.483Z,12.35
2022-09-07T06:20:14.820Z,11.77
2022-09-07T06:22:43.166Z,12.43
2022-09-07T06:25:13.014Z,12.68
2022-09-07T06:27:41.439Z,12.77
2022-09-07T06:30:10.677Z,12.60
2022-09-07T06:35:09.196Z,12.73
2022-09-07T06:37:37.534Z,13.27
2022-09-07T06:40:07.445Z,12.88
2022-09-07T06:42:37.499Z,12.90
2022-09-07T06:45:06.656Z,11.52
2022-09-07T06:47:37.706Z,12.65
2022-09-07T06:50:06.496Z,12.00
2022-09-07T06:55:27.639Z,11.00
2022-09-07T06:57:57.468Z,12.75
2022-09-07T07:00:25.785Z,10.93
2022-09-07T07:02:54.185Z,12.32
2022-09-07T07:05:22.633Z,12.55
2022-09-07T07:07:51.000Z,12.55
2022-09-07T07:10:24.312Z,11.88
2022-09-07T07:12:57.681Z,11.70
2022-09-07T07:15:29.519Z,11.55
2022-09-07T07:18:05.381Z,11.20
2022-09-07T07:20:43.295Z,11.27
2022-09-07T07:23:13.257Z,11.15
2022-09-07T07:25:41.639Z,10.00
2022-09-07T07:31:03.883Z,13.05
2022-09-07T07:33:36.613Z,12.10
2022-09-07T07:36:15.544Z,10.40
2022-09-07T07:39:02.036Z,11.07
2022-09-07T07:44:21.677Z,9.88
2022-09-07T07:46:52.316Z,9.32
2022-09-07T07:49:21.055Z,10.07
2022-09-07T07:54:38.364Z,9.80
2022-09-07T07:57:07.922Z,9.35
2022-09-07T07:59:36.718Z,9.60
2022-09-07T08:02:07.027Z,8.85
2022-09-07T08:04:36.311Z,9.55
2022-09-07T08:07:10.115Z,8.45
2022-09-07T08:09:41.529Z,9.60
2022-09-07T08:12:11.297Z,8.88
2022-09-07T08:14:41.509Z,9.65
2022-09-07T08:17:13.655Z,8.93
2022-09-07T08:19:42.662Z,9.18
2022-09-07T08:22:11.809Z,8.73
2022-09-07T08:24:40.429Z,9.50
2022-09-07T08:27:09.183Z,9.50
2022-09-07T08:29:37.515Z,8.63
2022-09-07T08:32:07.776Z,9.70
2022-09-07T08:34:40.389Z,9.65
2022-09-07T08:37:08.717Z,9.25
2022-09-07T08:39:37.690Z,9.98
2022-09-07T08:42:30.636Z,8.35
2022-09-07T08:45:03.906Z,7.88
2022-09-07T08:47:37.886Z,8.38
2022-09-07T08:50:13.157Z,7.63
2022-09-07T08:52:47.774Z,7.20
2022-09-07T08:55:20.453Z,7.38
2022-09-07T08:57:54.138Z,7.53
2022-09-07T09:00:23.186Z,8.18
2022-09-07T09:05:53.688Z,8.45
2022-09-07T09:08:34.647Z,9.13
2022-09-07T09:11:10.076Z,9.40
2022-09-07T09:13:53.258Z,9.38
2022-09-07T09:16:28.362Z,8.65
2022-09-07T09:19:15.556Z,9.27
2022-09-07T09:21:45.747Z,9.70
2022-09-07T09:24:19.130Z,9.35
2022-09-07T09:26:55.476Z,9.73
2022-09-07T09:29:24.526Z,8.80
2022-09-07T09:31:53.645Z,9.05
2022-09-07T09:34:24.015Z,9.48
2022-09-07T09:36:57.742Z,9.20
2022-09-07T09:39:28.356Z,8.52
2022-09-07T09:41:59.694Z,8.63
2022-09-07T09:44:32.754Z,9.25
2022-09-07T09:49:53.705Z,8.68
2022-09-07T09:52:30.770Z,7.72
2022-09-07T09:55:33.985Z,8.60
2022-09-07T10:06:22.618Z,9.20
2022-09-07T10:08:58.529Z,8.75
2022-09-07T10:14:42.825Z,9.20
2022-09-07T10:17:19.655Z,9.20
2022-09-07T10:19:49.588Z,9.00
2022-09-07T10:22:29.830Z,9.60
2022-09-07T10:25:00.934Z,9.50
2022-09-07T10:27:35.726Z,8.82
2022-09-07T10:30:10.851Z,9.20
2022-09-07T10:33:02.584Z,9.75
2022-09-07T10:35:35.165Z,10.18
2022-09-07T10:38:13.215Z,9.65
2022-09-07T10:40:45.816Z,9.70
2022-09-07T10:43:22.883Z,8.70
2022-09-07T10:46:03.718Z,8.90
2022-09-07T10:48:38.785Z,8.98
2022-09-07T10:51:14.453Z,9.65
2022-09-07T10:54:29.890Z,9.32
2022-09-07T10:56:55.367Z,8.88
2022-09-07T11:02:31.956Z,8.80
2022-09-07T11:05:15.397Z,8.63
2022-09-07T11:07:59.862Z,8.32
2022-09-07T11:10:38.686Z,8.50
2022-09-07T11:13:12.695Z,8.88
2022-09-07T11:15:45.110Z,8.30
2022-09-07T11:18:19.602Z,8.23
2022-09-07T11:20:55.535Z,8.65
2022-09-07T11:23:29.551Z,8.85
2022-09-07T11:26:05.528Z,8.82
2022-09-07T11:28:46.363Z,8.60
2022-09-07T11:31:22.215Z,8.13
2022-09-07T11:36:57.163Z,9.30
2022-09-07T11:39:31.572Z,9.45
2022-09-07T11:42:42.823Z,9.80
2022-09-07T11:45:00.809Z,9.98
2022-09-07T11:47:37.213Z,9.75
2022-09-07T11:50:06.280Z,9.77
2022-09-07T11:52:39.554Z,8.50
2022-09-07T11:55:11.518Z,8.65
2022-09-07T11:58:08.898Z,8.30
2022-09-07T12:00:46.260Z,8.00
2022-09-07T12:03:44.978Z,8.18
2022-09-07T12:06:55.141Z,7.88
2022-09-07T12:09:39.167Z,8.23
2022-09-07T12:13:00.317Z,8.77
2022-09-07T12:15:38.238Z,8.63
2022-09-07T12:18:24.057Z,8.55
2022-09-07T12:20:52.475Z,8.95
2022-09-07T12:23:27.461Z,7.75
2022-09-07T12:26:34.229Z,8.88
2022-09-07T12:29:20.079Z,8.75
2022-09-07T12:31:59.318Z,8.05
2022-09-07T12:35:00.297Z,8.55
2022-09-07T12:37:51.547Z,8.95
2022-09-07T12:40:48.247Z,8.63
2022-09-07T12:43:52.097Z,8.48
2022-09-07T12:46:36.826Z,8.55
2022-09-07T12:49:15.392Z,8.18
2022-09-07T12:52:13.892Z,8.23
2022-09-07T12:55:04.349Z,8.57
2022-09-07T12:58:02.393Z,8.50
2022-09-07T13:00:39.025Z,8.50
2022-09-07T13:07:06.588Z,8.60
2022-09-07T13:09:36.456Z,8.88
2022-09-07T13:15:41.043Z,8.93
2022-09-07T13:18:15.305Z,9.07
2022-09-07T13:20:43.642Z,8.88
2022-09-07T13:23:31.622Z,9.07
2022-09-07T13:26:01.984Z,9.65
2022-09-07T13:28:49.366Z,9.07
2022-09-07T13:31:42.145Z,9.10
2022-09-07T13:34:50.188Z,8.65
2022-09-07T13:37:22.466Z,9.00
2022-09-07T13:39:55.680Z,9.05
2022-09-07T13:42:27.546Z,8.82
2022-09-07T13:44:57.717Z,9.07
2022-09-07T13:47:41.804Z,9.43
2022-09-07T13:50:20.464Z,9.80
2022-09-07T13:53:17.277Z,8.88
2022-09-07T13:55:54.387Z,8.63
2022-09-07T13:58:29.789Z,9.02
2022-09-07T14:01:02.356Z,9.82
2022-09-07T14:03:37.843Z,9.27
2022-09-07T14:06:17.155Z,8.85
2022-09-07T14:08:49.518Z,9.05
2022-09-07T14:11:23.856Z,9.00
2022-09-07T14:14:12.676Z,9.15
2022-09-07T14:16:43.776Z,8.48
2022-09-07T14:19:24.285Z,9.02
2022-09-07T14:21:57.243Z,9.07
2022-09-07T14:24:31.465Z,9.38
2022-09-07T14:27:01.665Z,8.57
2022-09-07T14:29:32.334Z,9.65
2022-09-07T14:32:03.165Z,9.88
2022-09-07T14:34:35.728Z,9.70
2022-09-07T14:37:08.187Z,10.05
2022-09-07T14:39:40.277Z,9.48
2022-09-07T14:42:13.136Z,9.27
2022-09-07T14:44:45.005Z,10.77
2022-09-07T14:47:29.217Z,10.25
2022-09-07T14:50:05.427Z,10.27
2022-09-07T14:52:42.296Z,10.07
2022-09-07T14:55:28.941Z,10.40
2022-09-07T14:58:21.719Z,10.27
2022-09-07T15:03:59.733Z,11.35
2022-09-07T15:09:30.899Z,10.55
2022-09-07T15:12:15.014Z,10.48
2022-09-07T15:14:44.850Z,11.20
2022-09-07T15:20:37.283Z,12.50
2022-09-07T15:23:09.537Z,11.25
2022-09-07T15:25:38.687Z,11.80
2022-09-07T15:28:07.590Z,10.82
2022-09-07T15:30:37.223Z,11.15
2022-09-07T15:33:06.196Z,11.90
2022-09-07T15:35:34.604Z,11.63
2022-09-07T15:38:04.955Z,11.98
2022-09-07T15:41:03.894Z,16.48
2022-09-07T15:43:31.339Z,17.08
2022-09-07T15:46:01.184Z,18.73
2022-09-07T15:48:29.635Z,43.38
2022-09-07T15:51:03.769Z,38.30
2022-09-07T15:56:22.666Z,67.10
2022-09-07T15:58:53.476Z,48.70
2022-09-07T16:04:15.649Z,23.20
2022-09-07T16:06:44.605Z,22.17
2022-09-07T16:09:12.906Z,24.92
2022-09-07T16:11:41.308Z,27.33
2022-09-07T16:14:11.730Z,28.65
2022-09-07T16:19:29.747Z,24.88
2022-09-07T16:21:58.068Z,22.05
2022-09-07T16:24:27.997Z,18.95
2022-09-07T16:26:56.328Z,17.05
2022-09-07T16:29:24.838Z,16.15
2022-09-07T16:34:43.480Z,15.60
2022-09-07T16:37:12.452Z,15.15
2022-09-07T16:39:41.270Z,14.27
2022-09-07T16:42:10.259Z,13.80
2022-09-07T16:44:38.569Z,12.10
2022-09-07T16:47:08.254Z,13.13
2022-09-07T16:49:36.644Z,16.27
2022-09-07T16:52:10.590Z,20.02
2022-09-07T16:54:39.278Z,22.00
2022-09-07T16:57:07.837Z,22.08
2022-09-07T16:59:36.127Z,22.23
2022-09-07T17:02:04.526Z,23.00
2022-09-07T17:04:34.240Z,20.63
2022-09-07T17:07:02.588Z,19.13
2022-09-07T17:09:36.997Z,24.38
2022-09-07T17:12:05.789Z,23.13
2022-09-07T17:14:34.161Z,22.02
2022-09-07T17:17:03.772Z,21.00
2022-09-07T17:19:33.520Z,19.60
2022-09-07T17:22:02.115Z,18.60
2022-09-07T17:24:32.361Z,18.23
2022-09-07T17:27:01.288Z,19.92
2022-09-07T17:29:32.989Z,21.83
2022-09-07T17:34:51.950Z,47.42
2022-09-07T17:37:20.270Z,42.60
2022-09-07T17:39:48.737Z,35.03
2022-09-07T17:42:17.122Z,27.33
2022-09-07T17:44:45.435Z,23.90
2022-09-07T17:47:14.004Z,23.13
2022-09-07T17:49:42.256Z,23.00
2022-09-07T17:52:11.858Z,19.20
2022-09-07T17:54:40.540Z,17.27
2022-09-07T17:57:08.938Z,17.17
2022-09-07T18:02:25.503Z,15.73
2022-09-07T18:05:13.837Z,15.43
2022-09-07T18:07:43.447Z,16.85
2022-09-07T18:10:11.878Z,17.17
2022-09-07T18:12:40.167Z,17.60
2022-09-07T18:15:09.649Z,20.42
2022-09-07T18:17:39.436Z,19.33
2022-09-07T18:20:09.544Z,18.93
2022-09-07T18:22:37.960Z,19.33
2022-09-07T18:25:10.234Z,17.90
2022-09-07T18:27:40.450Z,17.55
2022-09-07T18:30:10.313Z,17.05
2022-09-07T18:32:38.543Z,16.45
2022-09-07T18:35:07.910Z,16.03
2022-09-07T18:37:36.281Z,15.43
2022-09-07T18:40:05.007Z,15.50
2022-09-07T18:42:34.716Z,15.95
2022-09-07T18:47:51.319Z,17.80
2022-09-07T18:50:20.579Z,18.20
2022-09-07T18:52:52.774Z,17.33
2022-09-07T18:55:21.547Z,18.13
2022-09-07T18:57:51.167Z,18.50
2022-09-07T19:00:19.538Z,18.67
2022-09-07T19:02:51.361Z,18.27
2022-09-07T19:08:10.924Z,19.53
2022-09-07T19:10:39.631Z,20.10
2022-09-07T19:13:09.308Z,20.77
2022-09-07T19:15:38.076Z,20.37
2022-09-07T19:18:08.095Z,18.80
2022-09-07T19:20:37.445Z,18.37
2022-09-07T19:23:06.888Z,16.73
2022-09-07T19:25:35.758Z,16.93
2022-09-07T19:28:04.345Z,17.97
2022-09-07T19:30:35.636Z,16.93
2022-09-07T19:33:04.650Z,17.43
2022-09-07T19:35:36.988Z,17.67
2022-09-07T19:38:05.892Z,16.83
2022-09-07T19:40:34.323Z,15.57
2022-09-07T19:43:02.565Z,15.77
2022-09-07T19:45:31.083Z,14.00
2022-09-07T19:48:00.645Z,15.17
2022-09-07T19:50:28.916Z,15.20
2022-09-07T19:52:57.238Z,15.00
2022-09-07T19:55:25.615Z,15.87
2022-09-07T19:57:53.931Z,16.40
2022-09-07T20:00:23.197Z,16.90
2022-09-07T20:02:52.327Z,16.50
2022-09-07T20:05:23.898Z,16.83
2022-09-07T20:07:52.258Z,16.37
2022-09-07T20:10:20.614Z,16.33
2022-09-07T20:12:48.926Z,15.93
2022-09-07T20:15:17.346Z,15.57
2022-09-07T20:17:47.154Z,16.07
2022-09-07T20:20:15.551Z,16.27
2022-09-07T20:22:45.266Z,16.80
2022-09-07T20:25:13.601Z,16.23
2022-09-07T20:27:42.106Z,16.80
2022-09-07T20:30:11.394Z,15.93
2022-09-07T20:32:39.768Z,15.77
2022-09-07T20:35:08.374Z,15.43
2022-09-07T20:37:36.927Z,14.83
2022-09-07T20:40:07.652Z,15.63
2022-09-07T20:42:36.101Z,15.40
2022-09-07T20:45:04.775Z,14.93
2022-09-07T20:47:33.088Z,15.07
2022-09-07T20:50:01.375Z,15.47
2022-09-07T20:52:29.724Z,14.67
2022-09-07T20:54:58.059Z,15.50
2022-09-07T20:57:27.599Z,14.70
2022-09-07T20:59:55.930Z,15.17
2022-09-07T21:02:24.294Z,16.63
2022-09-07T21:04:52.588Z,16.77
2022-09-07T21:07:20.936Z,16.10
2022-09-07T21:09:49.236Z,17.10
2022-09-07T21:12:17.843Z,18.10
2022-09-07T21:14:47.426Z,17.57
2022-09-07T21:17:15.727Z,17.77
2022-09-07T21:19:44.028Z,17.47
2022-09-07T21:22:12.328Z,17.50
2022-09-07T21:24:40.607Z,17.80
2022-09-07T21:27:08.951Z,16.70
2022-09-07T21:29:37.239Z,15.83
2022-09-07T21:32:06.914Z,16.37
2022-09-07T21:34:35.222Z,16.90
2022-09-07T21:37:03.436Z,17.87
2022-09-07T21:39:31.908Z,16.47
2022-09-07T21:42:00.187Z,16.70
2022-09-07T21:44:28.753Z,17.13
2022-09-07T21:46:57.309Z,16.37
2022-09-07T21:49:26.985Z,18.07
2022-09-07T21:51:55.282Z,18.13
2022-09-07T21:54:23.597Z,19.47
2022-09-07T21:56:53.286Z,18.43
2022-09-07T21:59:21.618Z,19.53
2022-09-07T22:01:50.061Z,18.23
2022-09-07T22:04:18.598Z,18.17
2022-09-07T22:06:48.186Z,19.23
2022-09-07T22:09:18.548Z,19.90
2022-09-07T22:11:47.635Z,20.57
2022-09-07T22:14:16.875Z,19.67
2022-09-07T22:16:45.467Z,19.87
2022-09-07T22:19:13.806Z,19.20
2022-09-07T22:21:42.258Z,18.90
2022-09-07T22:24:15.226Z,19.17
2022-09-07T22:26:43.782Z,19.00
2022-09-07T22:29:13.540Z,18.70
2022-09-07T22:31:42.473Z,19.27
2022-09-07T22:34:11.511Z,18.30
2022-09-07T22:36:42.318Z,18.13
2022-09-07T22:39:15.025Z,17.13
2022-09-07T22:41:44.441Z,17.17
2022-09-07T22:44:15.527Z,16.70
2022-09-07T22:46:45.135Z,16.33
2022-09-07T22:49:15.912Z,18.03
2022-09-07T22:51:44.689Z,17.93
2022-09-07T22:54:14.347Z,18.03
2022-09-07T22:56:42.767Z,18.73
2022-09-07T22:59:13.223Z,18.43
2022-09-07T23:01:41.990Z,19.50
2022-09-07T23:04:11.782Z,20.67
2022-09-07T23:06:41.943Z,19.33
2022-09-07T23:09:12.093Z,18.60
2022-09-07T23:11:41.746Z,18.37
2022-09-07T23:14:14.296Z,18.83
2022-09-07T23:16:42.672Z,18.90
2022-09-07T23:19:12.856Z,18.63
2022-09-07T23:21:41.337Z,18.70
2022-09-07T23:24:13.321Z,18.03
2022-09-07T23:26:43.476Z,19.93
2022-09-07T23:29:13.954Z,19.93
2022-09-07T23:31:43.111Z,19.83
2022-09-07T23:34:12.134Z,20.57
2022-09-07T23:36:40.726Z,20.40
2022-09-07T23:39:09.607Z,20.70
2022-09-07T23:41:37.897Z,21.67
2022-09-07T23:44:07.486Z,20.43
2022-09-07T23:46:35.834Z,21.90
2022-09-07T23:49:04.333Z,21.17
2022-09-07T23:51:32.525Z,20.50
2022-09-07T23:54:00.955Z,21.17
2022-09-07T23:56:31.185Z,21.73
2022-09-07T23:59:00.077Z,21.50
